Morris Chapel, Tennessee
Current Conditions -  °F | °C
As of 9:35 PM on Friday 28 Nov 2014 (Local Time) from KSNH Reporting Station
Clear Clear  
Wind Chill: 37°   Ceiling: Unl
Heat Index: 43°   Visibility: 10mi
Dew Point: 25°   Wind: 10mph
Humidity: 49%   Direction: 180°S
Pressure: 30.15"   Gusts: NA
Location:  35.32°N, 88.35°W
Report Text: KSNH 290335Z AUTO 18009KT 10SM CLR 06/M04 A3015 RMK
Loading
Personal Weather Stations






























Interactive Weather Map New forecast layout! Learn more

10-Day Weather Forecast

Advertisements
Track Severe Weather on mobile